createdAt,value
2022-12-24T00:00:58.082Z,95.58
2022-12-24T00:05:15.079Z,95.42
2022-12-24T00:09:32.255Z,95.18
2022-12-24T00:13:49.687Z,95.23
2022-12-24T00:18:06.887Z,95.31
2022-12-24T00:22:24.096Z,95.32
2022-12-24T00:26:41.162Z,95.23
2022-12-24T00:30:58.297Z,95.07
2022-12-24T00:35:15.510Z,95.40
2022-12-24T00:39:33.526Z,95.00
2022-12-24T00:43:56.552Z,95.29
2022-12-24T00:48:13.436Z,95.18
2022-12-24T00:52:30.501Z,94.96
2022-12-24T00:56:47.376Z,94.81
2022-12-24T01:01:05.666Z,95.19
2022-12-24T01:05:23.507Z,94.99
2022-12-24T01:09:40.443Z,94.97
2022-12-24T01:13:57.509Z,95.30
2022-12-24T01:18:14.509Z,95.42
2022-12-24T01:22:31.656Z,95.13
2022-12-24T01:26:48.532Z,95.20
2022-12-24T01:31:19.351Z,94.98
2022-12-24T01:35:43.459Z,95.12
2022-12-24T01:40:20.384Z,95.17
2022-12-24T01:44:48.067Z,94.97
2022-12-24T01:49:07.041Z,95.14
2022-12-24T01:53:24.458Z,95.15
2022-12-24T01:57:55.805Z,95.31
2022-12-24T02:02:13.645Z,95.05
2022-12-24T02:06:30.829Z,94.82
2022-12-24T02:10:48.745Z,95.08
2022-12-24T02:15:09.458Z,95.35
2022-12-24T02:19:29.343Z,94.68
2022-12-24T02:24:42.036Z,94.60
2022-12-24T02:29:21.478Z,94.63
2022-12-24T02:34:01.750Z,95.22
2022-12-24T02:38:50.021Z,94.70
2022-12-24T02:43:15.629Z,94.36
2022-12-24T02:47:34.420Z,94.45
2022-12-24T02:51:51.565Z,94.66
2022-12-24T02:56:26.586Z,94.92
2022-12-24T03:01:19.344Z,94.85
2022-12-24T03:05:56.443Z,94.49
2022-12-24T03:11:05.967Z,94.82
2022-12-24T03:15:26.411Z,94.96
2022-12-24T03:19:44.274Z,94.73
2022-12-24T03:24:02.207Z,94.80
2022-12-24T03:28:25.101Z,94.50
2022-12-24T03:32:41.999Z,94.33
2022-12-24T03:36:59.100Z,94.39
2022-12-24T03:41:16.418Z,95.44
2022-12-24T03:45:34.775Z,95.60
2022-12-24T03:49:52.442Z,95.13
2022-12-24T04:28:26.472Z,95.99
2022-12-24T04:45:42.000Z,96.06
2022-12-24T04:58:34.696Z,96.60
2022-12-24T05:02:52.000Z,96.77
2022-12-24T05:07:09.059Z,96.99
2022-12-24T05:11:26.954Z,97.10
2022-12-24T05:15:44.939Z,97.18
2022-12-24T05:20:02.029Z,97.21
2022-12-24T05:24:37.818Z,97.24
2022-12-24T05:28:57.756Z,97.28
2022-12-24T05:33:14.631Z,97.27
2022-12-24T05:37:31.715Z,97.26
2022-12-24T05:42:00.347Z,97.25
2022-12-24T05:46:21.527Z,97.12
2022-12-24T05:50:40.547Z,97.09
2022-12-24T05:54:57.635Z,97.04
2022-12-24T05:59:14.501Z,96.99
2022-12-24T06:03:32.909Z,96.91
2022-12-24T06:07:49.797Z,96.88
2022-12-24T06:12:07.378Z,96.75
2022-12-24T06:16:25.806Z,96.71
2022-12-24T06:20:43.033Z,96.64
2022-12-24T06:24:59.923Z,96.63
2022-12-24T06:29:16.980Z,96.62
2022-12-24T06:33:34.734Z,96.56
2022-12-24T06:37:51.874Z,96.63
2022-12-24T06:42:08.721Z,96.56
2022-12-24T06:46:25.988Z,96.56
2022-12-24T06:50:43.305Z,96.56
2022-12-24T06:55:00.459Z,96.83
2022-12-24T06:59:17.291Z,97.05
2022-12-24T07:03:35.436Z,97.23
2022-12-24T07:07:52.260Z,97.30
2022-12-24T07:12:09.670Z,97.38
2022-12-24T07:16:26.658Z,97.41
2022-12-24T07:20:43.958Z,97.38
2022-12-24T07:25:00.940Z,97.43
2022-12-24T07:29:18.051Z,97.41
2022-12-24T07:33:34.931Z,97.42
2022-12-24T07:37:52.056Z,97.41
2022-12-24T07:42:08.959Z,97.41
2022-12-24T07:46:27.357Z,97.33
2022-12-24T07:50:44.304Z,97.28
2022-12-24T07:55:01.432Z,97.15
2022-12-24T07:59:18.273Z,97.10
2022-12-24T08:03:35.692Z,97.03
2022-12-24T08:07:52.592Z,96.94
2022-12-24T08:12:09.727Z,96.89
2022-12-24T08:16:26.790Z,96.94
2022-12-24T08:20:44.409Z,96.79
2022-12-24T08:25:01.344Z,96.56
2022-12-24T08:29:18.399Z,96.31
2022-12-24T08:33:35.454Z,96.14
2022-12-24T08:37:52.617Z,96.13
2022-12-24T08:42:09.479Z,95.77
2022-12-24T08:46:27.172Z,95.60
2022-12-24T08:50:44.622Z,96.00
2022-12-24T08:55:01.833Z,96.30
2022-12-24T08:59:18.774Z,96.38
2022-12-24T09:03:36.035Z,96.38
2022-12-24T09:07:53.347Z,96.54
2022-12-24T09:12:10.559Z,96.51
2022-12-24T09:16:28.099Z,96.51
2022-12-24T09:20:46.992Z,96.55
2022-12-24T09:25:06.410Z,96.51
2022-12-24T09:29:23.496Z,96.66
2022-12-24T09:33:42.214Z,96.61
2022-12-24T09:38:05.147Z,96.71
2022-12-24T09:42:49.108Z,96.66
2022-12-24T09:47:28.625Z,96.72
2022-12-24T09:52:03.626Z,96.83
2022-12-24T09:56:31.740Z,97.00
2022-12-24T10:00:50.408Z,97.14
2022-12-24T10:05:15.855Z,97.18
2022-12-24T10:10:29.715Z,97.33
2022-12-24T10:14:58.351Z,97.34
2022-12-24T10:19:37.501Z,97.39
2022-12-24T10:24:02.205Z,97.45
2022-12-24T10:28:30.230Z,97.46
2022-12-24T10:32:52.822Z,97.49
2022-12-24T10:37:22.925Z,97.44
2022-12-24T10:41:40.249Z,97.44
2022-12-24T10:46:02.319Z,97.30
2022-12-24T10:50:43.106Z,97.22
2022-12-24T10:55:24.540Z,97.22
2022-12-24T10:59:55.092Z,97.19
2022-12-24T11:04:23.278Z,97.05
2022-12-24T11:08:45.410Z,96.98
2022-12-24T11:13:35.799Z,96.96
2022-12-24T11:17:40.343Z,96.95
2022-12-24T11:22:05.642Z,96.98
2022-12-24T11:26:30.491Z,96.88
2022-12-24T11:31:21.243Z,96.97
2022-12-24T11:35:47.891Z,96.93
2022-12-24T11:40:05.722Z,96.88
2022-12-24T11:44:27.898Z,96.80
2022-12-24T11:48:45.388Z,96.60
2022-12-24T11:53:17.856Z,96.46
2022-12-24T11:58:02.653Z,96.72
2022-12-24T12:02:29.763Z,96.65
2022-12-24T12:07:00.665Z,96.42
2022-12-24T12:11:18.435Z,95.97
2022-12-24T12:15:45.867Z,95.69
2022-12-24T12:20:15.162Z,95.79
2022-12-24T12:24:43.941Z,95.53
2022-12-24T12:29:10.593Z,95.89
2022-12-24T12:34:00.634Z,95.92
2022-12-24T12:38:27.445Z,95.86
2022-12-24T12:43:08.520Z,95.86
2022-12-24T12:47:50.257Z,95.96
2022-12-24T12:52:40.902Z,95.89
2022-12-24T12:57:06.338Z,96.11
2022-12-24T13:01:44.860Z,95.84
